Yichuan, China
Current Conditions -  °F | °C
As of 4:00 AM on Thursday 29 Jan 2015 (Local Time) from ZHCC Reporting Station
Light Snow Light Snow  
Wind Chill: 17°   Ceiling: 3000
Heat Index: 23°   Visibility: 1.8mi
Dew Point: 21°   Wind: 4mph
Humidity: 93%   Direction: 290°WNW
Pressure: 30.45"   Gusts: NA
Location:  34.42°N, 112.43°E
Report Text: ZHCC 282000Z 29002MPS 3000 -SN BR OVC030 M05/M06 Q1031 NOSIG
Loading
Personal Weather Stations






























Interactive Weather Map New forecast layout! Learn more

10-Day Weather Forecast

Advertisements
Track Severe Weather on mobile